createdAt,value
2019-06-10T00:00:31.271Z,3.59
2019-06-10T00:05:41.441Z,3.48
2019-06-10T00:10:48.118Z,4.07
2019-06-10T00:15:54.449Z,4.21
2019-06-10T00:21:03.366Z,4.53
2019-06-10T00:26:12.398Z,4.35
2019-06-10T00:31:20.767Z,4.58
2019-06-10T00:36:27.517Z,7.39
2019-06-10T00:41:33.865Z,5.17
2019-06-10T00:46:40.855Z,4.25
2019-06-10T00:51:47.368Z,3.67
2019-06-10T00:56:53.856Z,4.43
2019-06-10T01:02:01.709Z,3.42
2019-06-10T01:07:14.241Z,3.98
2019-06-10T01:12:13.526Z,3.54
2019-06-10T01:17:13.779Z,3.37
2019-06-10T01:22:13.777Z,3.60
2019-06-10T01:27:21.284Z,3.31
2019-06-10T01:32:27.781Z,4.45
2019-06-10T01:37:34.071Z,4.36
2019-06-10T01:42:41.267Z,4.24
2019-06-10T01:47:47.919Z,3.67
2019-06-10T01:52:54.339Z,3.46
2019-06-10T01:58:00.954Z,3.14
2019-06-10T02:03:08.489Z,3.35
2019-06-10T02:08:08.788Z,3.64
2019-06-10T02:13:17.620Z,3.26
2019-06-10T02:18:24.760Z,3.32
2019-06-10T02:23:31.753Z,3.26
2019-06-10T02:28:40.581Z,3.53
2019-06-10T02:33:41.980Z,3.11
2019-06-10T02:38:48.827Z,3.48
2019-06-10T02:43:55.413Z,3.24
2019-06-10T02:49:20.932Z,3.19
2019-06-10T02:54:08.011Z,3.68
2019-06-10T02:59:16.309Z,3.74
2019-06-10T03:04:16.354Z,3.07
2019-06-10T03:09:28.943Z,3.28
2019-06-10T03:14:28.220Z,3.12
2019-06-10T03:19:44.165Z,3.29
2019-06-10T03:24:42.146Z,3.37
2019-06-10T03:29:48.984Z,3.32
2019-06-10T03:34:55.410Z,3.72
2019-06-10T03:40:02.613Z,3.65
2019-06-10T03:45:09.053Z,3.74
2019-06-10T03:50:17.061Z,3.55
2019-06-10T03:55:26.477Z,3.90
2019-06-10T04:00:25.557Z,4.16
2019-06-10T04:05:33.992Z,3.81
2019-06-10T04:10:42.885Z,3.76
2019-06-10T04:15:49.383Z,3.96
2019-06-10T04:20:56.083Z,3.79
2019-06-10T04:26:02.611Z,4.00
2019-06-10T04:31:09.114Z,3.80
2019-06-10T04:36:15.493Z,4.09
2019-06-10T04:41:24.321Z,4.11
2019-06-10T04:46:32.902Z,4.18
2019-06-10T04:51:43.453Z,4.12
2019-06-10T04:56:39.976Z,4.28
2019-06-10T05:01:46.472Z,4.38
2019-06-10T05:06:53.034Z,4.20
2019-06-10T05:11:59.637Z,4.69
2019-06-10T05:17:05.887Z,4.23
2019-06-10T05:22:12.681Z,4.90
2019-06-10T05:27:20.427Z,5.08
2019-06-10T05:32:29.127Z,5.71
2019-06-10T05:37:35.651Z,5.54
2019-06-10T05:42:42.653Z,5.05
2019-06-10T05:47:49.385Z,5.50
2019-06-10T05:52:55.729Z,5.58
2019-06-10T05:58:02.700Z,5.18
2019-06-10T06:03:09.245Z,5.11
2019-06-10T06:08:15.523Z,5.38
2019-06-10T06:13:23.206Z,5.56
2019-06-10T06:18:29.978Z,5.49
2019-06-10T06:23:38.172Z,5.00
2019-06-10T06:28:45.064Z,5.31
2019-06-10T06:33:52.705Z,5.34
2019-06-10T06:38:59.451Z,5.27
2019-06-10T06:44:05.822Z,5.06
2019-06-10T06:49:12.935Z,4.97
2019-06-10T06:54:19.648Z,5.30
2019-06-10T06:59:26.223Z,4.69
2019-06-10T07:04:35.196Z,4.95
2019-06-10T07:09:43.352Z,5.28
2019-06-10T07:14:52.477Z,4.97
2019-06-10T07:19:59.394Z,4.97
2019-06-10T07:25:06.663Z,4.91
2019-06-10T07:30:15.180Z,4.61
2019-06-10T07:35:23.506Z,4.85
2019-06-10T07:40:33.090Z,4.96
2019-06-10T07:45:33.813Z,4.73
2019-06-10T07:50:34.729Z,4.87
2019-06-10T07:55:35.033Z,5.03
2019-06-10T08:00:47.954Z,4.98
2019-06-10T08:05:46.266Z,4.83
2019-06-10T08:10:53.227Z,4.66
2019-06-10T08:16:02.525Z,4.44
2019-06-10T08:21:09.313Z,5.19
2019-06-10T08:26:15.733Z,4.88
2019-06-10T08:31:22.590Z,5.10
2019-06-10T08:36:29.322Z,4.83
2019-06-10T08:41:36.311Z,11.22
2019-06-10T08:46:44.067Z,10.18
2019-06-10T08:51:53.505Z,8.22
2019-06-10T08:57:03.325Z,7.07
2019-06-10T09:02:12.203Z,7.43
2019-06-10T09:07:18.995Z,11.09
2019-06-10T09:12:32.319Z,7.29
2019-06-10T09:17:33.802Z,18.73
2019-06-10T09:22:42.230Z,21.07
2019-06-10T09:27:44.639Z,6.38
2019-06-10T09:32:48.484Z,5.71
2019-06-10T09:37:50.864Z,7.38
2019-06-10T09:42:52.361Z,5.42
2019-06-10T09:47:55.543Z,4.14
2019-06-10T09:52:57.122Z,6.86
2019-06-10T09:58:03.633Z,4.60
2019-06-10T10:03:12.339Z,4.25
2019-06-10T10:08:18.978Z,5.60
2019-06-10T10:13:25.305Z,7.59
2019-06-10T10:18:33.414Z,7.81
2019-06-10T10:23:52.534Z,4.51
2019-06-10T10:28:48.433Z,4.39
2019-06-10T10:33:46.807Z,3.43
2019-06-10T10:38:53.568Z,4.43
2019-06-10T10:44:02.911Z,6.40
2019-06-10T10:49:13.062Z,5.05
2019-06-10T10:54:22.365Z,5.00
2019-06-10T10:59:16.634Z,5.09
2019-06-10T11:04:23.350Z,8.69
2019-06-10T11:09:32.858Z,4.11
2019-06-10T11:14:30.068Z,4.70
2019-06-10T11:19:36.960Z,7.32
2019-06-10T11:24:44.931Z,4.71
2019-06-10T11:29:56.566Z,3.50
2019-06-10T11:34:56.917Z,3.62
2019-06-10T11:40:03.777Z,3.94
2019-06-10T11:45:10.295Z,3.94
2019-06-10T11:50:18.616Z,4.05
2019-06-10T11:55:25.375Z,4.23
2019-06-10T12:00:33.057Z,3.51
2019-06-10T12:05:39.923Z,3.94
2019-06-10T12:10:46.675Z,3.90
2019-06-10T12:16:32.702Z,4.49
2019-06-10T12:21:03.709Z,4.12
2019-06-10T12:26:10.891Z,4.12
2019-06-10T12:31:18.271Z,4.43
2019-06-10T12:36:24.799Z,5.39
2019-06-10T12:41:33.169Z,5.19
2019-06-10T12:46:40.029Z,4.05
2019-06-10T12:51:46.601Z,3.94
2019-06-10T12:56:55.255Z,4.99
2019-06-10T13:02:15.599Z,6.00
2019-06-10T13:07:12.535Z,4.30
2019-06-10T13:12:19.458Z,4.51
2019-06-10T13:17:26.331Z,4.77
2019-06-10T13:22:32.952Z,4.24
2019-06-10T13:27:39.688Z,5.29
2019-06-10T13:32:46.142Z,7.45
2019-06-10T13:37:52.905Z,5.18
2019-06-10T13:42:59.762Z,4.65
2019-06-10T13:48:08.367Z,4.70
2019-06-10T13:53:08.553Z,4.32
2019-06-10T13:58:16.169Z,4.60
2019-06-10T14:03:23.064Z,4.64
2019-06-10T14:08:29.446Z,4.73
2019-06-10T14:13:35.933Z,5.18
2019-06-10T14:18:42.665Z,5.42
2019-06-10T14:23:49.143Z,5.23
2019-06-10T14:28:55.790Z,5.78
2019-06-10T14:34:04.355Z,6.29
2019-06-10T14:39:03.922Z,6.32
2019-06-10T14:44:14.218Z,4.95
2019-06-10T14:49:15.294Z,5.04
2019-06-10T14:54:23.516Z,7.80
2019-06-10T14:59:30.379Z,5.38
2019-06-10T15:04:37.166Z,5.50
2019-06-10T15:09:43.913Z,5.15
2019-06-10T15:14:52.115Z,6.02
2019-06-10T15:19:58.892Z,5.26
2019-06-10T15:25:05.597Z,5.44
2019-06-10T15:30:20.742Z,4.65
2019-06-10T15:35:21.275Z,4.75
2019-06-10T15:40:23.086Z,5.46
2019-06-10T15:45:32.379Z,5.25
2019-06-10T15:50:39.553Z,6.37
2019-06-10T15:56:08.976Z,6.95
2019-06-10T16:00:53.568Z,6.57
2019-06-10T16:06:02.910Z,5.34
2019-06-10T16:11:10.269Z,7.26
2019-06-10T16:16:17.072Z,8.41
2019-06-10T16:21:23.808Z,6.77
2019-06-10T16:26:30.696Z,7.13
2019-06-10T16:31:37.312Z,6.19
2019-06-10T16:36:43.400Z,5.95
2019-06-10T16:41:52.184Z,5.82
2019-06-10T16:46:58.949Z,6.38
2019-06-10T16:52:05.405Z,6.08
2019-06-10T16:57:12.331Z,6.48
2019-06-10T17:02:19.278Z,5.68
2019-06-10T17:07:26.807Z,6.80
2019-06-10T17:12:33.333Z,5.28
2019-06-10T17:17:39.810Z,5.35
2019-06-10T17:22:45.994Z,5.67
2019-06-10T17:27:52.719Z,6.24
2019-06-10T17:32:59.171Z,6.70
2019-06-10T17:38:05.807Z,5.76
2019-06-10T17:43:12.388Z,6.49
2019-06-10T17:48:18.969Z,5.93
2019-06-10T17:53:26.168Z,6.31
2019-06-10T17:58:43.615Z,7.86
2019-06-10T18:03:40.117Z,7.01
2019-06-10T18:08:46.766Z,5.96
2019-06-10T18:13:53.185Z,6.28
2019-06-10T18:18:59.848Z,6.45
2019-06-10T18:24:08.507Z,6.42
2019-06-10T18:29:15.181Z,6.49
2019-06-10T18:34:22.920Z,6.62
2019-06-10T18:39:29.466Z,7.48
2019-06-10T18:44:37.491Z,8.39
2019-06-10T18:49:44.268Z,7.64
2019-06-10T18:54:52.735Z,8.51
2019-06-10T18:59:59.547Z,10.13
2019-06-10T19:05:06.174Z,8.59
2019-06-10T19:10:12.899Z,9.72
2019-06-10T19:15:19.316Z,9.92
2019-06-10T19:20:26.027Z,10.63
2019-06-10T19:25:35.475Z,11.10
2019-06-10T19:30:35.798Z,10.40
2019-06-10T19:35:35.515Z,8.70
2019-06-10T19:40:44.065Z,9.51
2019-06-10T19:45:52.777Z,9.53
2019-06-10T19:50:59.672Z,15.45
2019-06-10T19:56:06.084Z,9.35
2019-06-10T20:01:12.236Z,8.54
2019-06-10T20:06:18.515Z,8.22
2019-06-10T20:11:25.441Z,8.20
2019-06-10T20:16:31.643Z,8.97
2019-06-10T20:21:38.141Z,9.39
2019-06-10T20:26:46.365Z,10.41
2019-06-10T20:31:53.182Z,9.62
2019-06-10T20:36:59.589Z,9.25
2019-06-10T20:42:06.120Z,10.16
2019-06-10T20:47:14.298Z,9.72
2019-06-10T20:52:22.177Z,10.16
2019-06-10T20:57:29.008Z,11.07
2019-06-10T21:02:35.449Z,11.20
2019-06-10T21:07:43.813Z,11.14
2019-06-10T21:12:51.031Z,10.36
2019-06-10T21:17:57.461Z,10.29
2019-06-10T21:23:04.083Z,10.15
2019-06-10T21:28:12.976Z,9.72
2019-06-10T21:33:19.611Z,9.44
2019-06-10T21:38:32.619Z,10.77
2019-06-10T21:43:33.054Z,10.74
2019-06-10T21:48:32.351Z,11.16
2019-06-10T21:53:44.816Z,11.69
2019-06-10T21:58:45.029Z,11.74
2019-06-10T22:03:58.776Z,12.44
2019-06-10T22:08:47.705Z,11.72
2019-06-10T22:13:56.146Z,11.57
2019-06-10T22:19:03.975Z,11.28
2019-06-10T22:24:12.577Z,12.51
2019-06-10T22:29:18.909Z,14.83
2019-06-10T22:34:25.172Z,14.14
2019-06-10T22:39:32.574Z,14.68
2019-06-10T22:44:38.871Z,14.64
2019-06-10T22:49:45.244Z,14.92
2019-06-10T22:54:54.620Z,15.32
2019-06-10T22:59:54.529Z,14.22
2019-06-10T23:05:05.420Z,15.29
2019-06-10T23:10:12.389Z,15.65
2019-06-10T23:15:19.270Z,17.36
2019-06-10T23:20:25.377Z,17.20
2019-06-10T23:25:32.658Z,18.95
2019-06-10T23:30:38.860Z,17.69
2019-06-10T23:35:47.604Z,16.23
2019-06-10T23:40:54.737Z,15.98
2019-06-10T23:46:01.950Z,16.11
2019-06-10T23:51:12.119Z,16.17
2019-06-10T23:56:18.427Z,16.19
